Time;durP1;ratioP1;P1;durP2;ratioP2;P2;SDS_P1;SDS_P2;PMS_P1;PMS_P2;Temp;Humidity;BMP_temperature;BMP_pressure;BME280_temperature;BME280_humidity;BME280_pressure;Samples;Min_cycle;Max_cycle;Signal;HPM_P1;HPM_P2
2024/04/09 00:00:31;;;;;;;23.42;4.45;;;17.90;99.90;;;;;;5508716;25;20005;-86
2024/04/09 00:02:57;;;;;;;28.58;3.78;;;18.00;99.90;;;;;;5513632;25;20005;-85
2024/04/09 00:05:26;;;;;;;17.70;3.55;;;18.00;99.90;;;;;;5508129;25;19994;-85
2024/04/09 00:07:51;;;;;;;31.75;3.65;;;17.90;99.60;;;;;;5505451;25;20022;-85
2024/04/09 00:10:19;;;;;;;16.27;3.42;;;17.90;99.40;;;;;;5504531;26;20001;-85
2024/04/09 00:12:46;;;;;;;22.67;4.35;;;18.00;98.90;;;;;;5506618;25;20009;-86
2024/04/09 00:15:12;;;;;;;19.27;3.42;;;18.00;98.90;;;;;;5506688;25;20009;-86
2024/04/09 00:17:55;;;;;;;23.85;4.97;;;18.00;98.70;;;;;;5504969;26;20005;-85
2024/04/09 00:20:24;;;;;;;17.40;3.63;;;18.00;98.90;;;;;;5507390;26;20002;-85
2024/04/09 00:22:51;;;;;;;19.85;3.70;;;18.00;98.80;;;;;;5505151;25;20012;-86
2024/04/09 00:25:18;;;;;;;19.65;3.33;;;18.00;98.50;;;;;;5506568;26;19997;-86
2024/04/09 00:27:45;;;;;;;23.17;4.35;;;18.00;98.60;;;;;;5505121;26;20001;-85
2024/04/09 00:30:11;;;;;;;11.98;3.55;;;18.00;98.50;;;;;;5506211;26;20006;-85
2024/04/09 00:32:36;;;;;;;17.17;3.40;;;18.00;98.20;;;;;;5505014;25;20018;-85
2024/04/09 00:35:03;;;;;;;15.73;4.10;;;18.00;98.20;;;;;;5505892;26;20034;-86
2024/04/09 00:37:29;;;;;;;23.15;3.83;;;18.00;98.40;;;;;;5500344;26;19997;-85
2024/04/09 00:39:55;;;;;;;29.33;3.90;;;18.00;98.20;;;;;;5506160;25;20862;-85
2024/04/09 00:42:21;;;;;;;16.02;3.17;;;18.00;98.40;;;;;;5505038;25;20012;-86
2024/04/09 00:44:48;;;;;;;14.13;3.17;;;18.00;98.40;;;;;;5505902;25;20016;-86
2024/04/09 00:47:16;;;;;;;20.67;4.03;;;18.00;98.40;;;;;;5507171;25;20047;-85
2024/04/09 00:49:46;;;;;;;19.42;3.63;;;17.90;98.50;;;;;;5508018;26;20005;-85
2024/04/09 00:52:12;;;;;;;18.48;3.20;;;17.90;98.60;;;;;;5505657;26;20631;-85
2024/04/09 00:54:39;;;;;;;16.10;3.35;;;17.90;98.40;;;;;;5503614;25;20015;-85
2024/04/09 00:57:06;;;;;;;23.92;4.25;;;17.80;98.30;;;;;;5505823;26;19997;-85
2024/04/09 00:59:32;;;;;;;21.00;3.45;;;17.80;98.30;;;;;;5504715;26;20517;-86
2024/04/09 01:02:00;;;;;;;20.83;3.38;;;17.80;98.50;;;;;;5504595;26;20098;-85
2024/04/09 01:04:25;;;;;;;16.20;3.70;;;17.80;98.70;;;;;;5506150;25;20005;-85
2024/04/09 01:06:51;;;;;;;18.42;3.60;;;17.70;98.60;;;;;;5506631;25;20027;-84
2024/04/09 01:09:17;;;;;;;15.18;3.67;;;17.70;98.50;;;;;;5505762;25;20001;-85
2024/04/09 01:11:42;;;;;;;26.73;3.53;;;17.70;98.60;;;;;;5505814;25;20454;-84
2024/04/09 01:14:08;;;;;;;19.00;3.53;;;17.60;98.60;;;;;;5507631;26;20145;-85
2024/04/09 01:16:34;;;;;;;19.30;3.78;;;17.60;98.60;;;;;;5505892;26;20064;-85
2024/04/09 01:19:00;;;;;;;22.00;4.30;;;17.50;99.20;;;;;;5505137;26;20190;-85
2024/04/09 01:21:25;;;;;;;21.08;3.63;;;17.50;99.20;;;;;;5506493;26;19994;-85
2024/04/09 01:23:53;;;;;;;15.00;3.72;;;17.40;98.90;;;;;;5506802;25;20326;-85
2024/04/09 01:26:18;;;;;;;15.27;3.40;;;17.40;99.20;;;;;;5506084;25;20022;-85
2024/04/09 01:28:46;;;;;;;20.30;4.07;;;17.30;98.90;;;;;;5506796;25;20001;-85
2024/04/09 01:31:15;;;;;;;20.17;3.45;;;17.30;99.00;;;;;;5505420;26;20437;-85
2024/04/09 01:33:42;;;;;;;20.00;3.67;;;17.30;98.60;;;;;;5508364;26;20006;-85
2024/04/09 01:36:10;;;;;;;18.05;3.55;;;17.30;99.40;;;;;;5508211;25;19998;-85
2024/04/09 01:38:36;;;;;;;28.40;4.22;;;17.30;99.90;;;;;;5507136;26;20327;-85
2024/04/09 01:41:01;;;;;;;21.15;3.80;;;17.30;98.70;;;;;;5507119;25;20013;-86
2024/04/09 01:43:28;;;;;;;22.35;3.97;;;17.30;99.30;;;;;;5505007;26;20001;-86
2024/04/09 01:45:53;;;;;;;19.73;4.43;;;17.30;99.90;;;;;;5505354;26;20112;-85
2024/04/09 01:48:21;;;;;;;20.00;4.20;;;17.20;99.90;;;;;;5505391;26;20020;-85
2024/04/09 01:50:46;;;;;;;22.35;4.45;;;17.10;99.90;;;;;;5507250;25;20065;-86
2024/04/09 01:53:12;;;;;;;19.67;3.97;;;16.90;99.90;;;;;;5508233;25;19998;-85
2024/04/09 01:55:38;;;;;;;19.65;4.32;;;16.80;99.90;;;;;;5508144;26;20005;-86
2024/04/09 01:58:04;;;;;;;15.75;3.38;;;16.70;99.90;;;;;;5507496;26;20071;-85
2024/04/09 02:00:30;;;;;;;22.58;4.45;;;16.50;99.90;;;;;;5506911;26;20012;-85
2024/04/09 02:02:56;;;;;;;19.52;4.32;;;16.40;99.90;;;;;;5506015;25;20532;-85
2024/04/09 02:05:22;;;;;;;22.48;4.53;;;16.30;99.90;;;;;;5506331;25;20039;-85
2024/04/09 02:07:48;;;;;;;18.75;4.03;;;16.10;99.90;;;;;;5505290;26;20016;-85
2024/04/09 02:10:13;;;;;;;23.35;3.78;;;16.00;99.90;;;;;;5506536;25;20002;-86
2024/04/09 02:12:40;;;;;;;21.00;4.55;;;15.90;99.90;;;;;;5506294;26;20009;-85
2024/04/09 02:15:06;;;;;;;15.40;4.35;;;15.70;99.90;;;;;;5506881;25;20005;-85
2024/04/09 02:17:32;;;;;;;23.25;4.50;;;15.60;99.90;;;;;;5503234;25;20051;-85
2024/04/09 02:19:57;;;;;;;17.48;3.95;;;15.50;99.90;;;;;;5504281;25;20009;-85
2024/04/09 02:22:24;;;;;;;17.70;3.72;;;15.30;99.90;;;;;;5502762;26;20002;-85
2024/04/09 02:24:50;;;;;;;17.55;4.18;;;15.20;99.90;;;;;;5505610;26;20678;-85
2024/04/09 02:27:16;;;;;;;19.58;4.53;;;15.10;99.90;;;;;;5504030;25;20048;-85
2024/04/09 02:29:42;;;;;;;18.80;3.80;;;15.00;99.90;;;;;;5506859;25;20009;-85
2024/04/09 02:32:10;;;;;;;20.27;3.97;;;14.90;99.90;;;;;;5504002;26;20005;-86
2024/04/09 02:34:36;;;;;;;23.95;4.28;;;14.90;99.90;;;;;;5503967;25;20052;-85
2024/04/09 02:37:05;;;;;;;20.33;4.60;;;14.90;99.90;;;;;;5504282;25;19991;-85
2024/04/09 02:39:31;;;;;;;18.45;4.43;;;14.80;99.90;;;;;;5503937;26;20021;-85
2024/04/09 02:41:57;;;;;;;16.88;4.50;;;14.80;99.90;;;;;;5505762;26;20009;-85
2024/04/09 02:44:23;;;;;;;15.00;3.50;;;14.80;99.90;;;;;;5504712;25;20013;-85
2024/04/09 02:46:49;;;;;;;18.90;4.00;;;14.80;99.90;;;;;;5503926;25;20012;-85
2024/04/09 02:49:15;;;;;;;22.17;5.00;;;14.70;99.90;;;;;;5504638;25;20055;-85
2024/04/09 02:51:42;;;;;;;20.70;4.25;;;14.70;99.90;;;;;;5502248;26;20002;-86
2024/04/09 02:54:11;;;;;;;19.13;3.78;;;14.70;99.90;;;;;;5504552;25;20010;-85
2024/04/09 02:56:37;;;;;;;20.58;4.15;;;14.60;99.90;;;;;;5499838;26;20035;-86
2024/04/09 02:59:03;;;;;;;17.48;4.13;;;14.60;99.90;;;;;;5503670;25;20005;-85
2024/04/09 03:01:29;;;;;;;19.27;4.53;;;14.60;99.90;;;;;;5501910;25;20005;-85
2024/04/09 03:03:55;;;;;;;18.08;3.55;;;14.50;99.90;;;;;;5502533;26;19998;-85
2024/04/09 03:06:21;;;;;;;19.30;4.43;;;14.50;99.90;;;;;;5504986;25;20150;-85
2024/04/09 03:08:47;;;;;;;24.27;4.22;;;14.40;99.90;;;;;;5501701;25;20017;-84
2024/04/09 03:11:17;;;;;;;20.40;3.88;;;14.30;99.90;;;;;;5505005;26;20002;-85
2024/04/09 03:13:45;;;;;;;15.88;5.45;;;14.30;99.90;;;;;;5505659;26;20072;-85
2024/04/09 03:16:16;;;;;;;20.02;4.20;;;14.30;99.90;;;;;;5503061;25;20001;-85
2024/04/09 03:18:42;;;;;;;21.95;4.43;;;14.20;99.90;;;;;;5505029;26;20362;-86
2024/04/09 03:21:08;;;;;;;19.40;4.40;;;14.20;99.90;;;;;;5506367;26;20001;-85
2024/04/09 03:23:34;;;;;;;16.38;4.28;;;14.20;99.90;;;;;;5503786;26;20005;-85
2024/04/09 03:26:01;;;;;;;23.63;3.92;;;14.20;99.90;;;;;;5511780;26;20077;-86
2024/04/09 03:28:26;;;;;;;26.83;5.07;;;14.30;99.90;;;;;;5511872;26;20046;-85
2024/04/09 03:31:00;;;;;;;19.98;3.63;;;14.30;99.90;;;;;;5514754;25;20005;-85
2024/04/09 03:33:25;;;;;;;17.23;3.60;;;14.50;99.90;;;;;;5511635;26;20101;-85
2024/04/09 03:35:56;;;;;;;15.50;3.47;;;14.60;99.90;;;;;;5508446;26;20009;-85
2024/04/09 03:38:21;;;;;;;22.60;4.55;;;14.70;99.90;;;;;;5505590;25;20009;-85
2024/04/09 03:41:01;;;;;;;19.75;4.57;;;14.70;99.90;;;;;;5507593;25;20014;-86
2024/04/09 03:43:27;;;;;;;23.58;4.50;;;14.90;99.90;;;;;;5506760;26;20001;-85
2024/04/09 03:46:10;;;;;;;22.40;4.07;;;15.00;99.90;;;;;;5505275;25;20047;-85
2024/04/09 03:48:37;;;;;;;20.70;4.65;;;15.00;99.90;;;;;;5508822;25;19997;-85
2024/04/09 03:51:03;;;;;;;20.10;3.72;;;15.10;99.90;;;;;;5506088;26;20758;-86
2024/04/09 03:53:28;;;;;;;27.83;3.75;;;15.20;99.90;;;;;;5506358;26;20034;-85
2024/04/09 03:55:55;;;;;;;23.45;4.05;;;15.20;99.90;;;;;;5504487;25;20025;-85
2024/04/09 03:58:21;;;;;;;20.55;5.55;;;15.20;99.90;;;;;;5505355;25;19986;-85
2024/04/09 04:01:01;;;;;;;21.58;4.40;;;15.30;99.90;;;;;;5506521;25;20098;-85
2024/04/09 04:03:30;;;;;;;21.77;3.97;;;15.40;99.90;;;;;;5506718;25;20012;-84
2024/04/09 04:05:57;;;;;;;16.70;4.18;;;15.40;99.90;;;;;;5506292;25;20013;-86
2024/04/09 04:08:25;;;;;;;16.13;3.47;;;15.50;99.90;;;;;;5503951;26;20698;-85
2024/04/09 04:10:58;;;;;;;19.35;4.18;;;15.50;99.90;;;;;;5505637;26;20017;-85
2024/04/09 04:13:25;;;;;;;23.92;4.35;;;15.50;99.90;;;;;;5504158;26;20045;-85
2024/04/09 04:16:07;;;;;;;23.33;4.47;;;15.50;99.90;;;;;;5506445;26;20052;-85
2024/04/09 04:18:36;;;;;;;15.07;4.03;;;15.50;99.90;;;;;;5505875;25;20023;-85
2024/04/09 04:21:04;;;;;;;21.27;4.30;;;15.40;99.90;;;;;;5505044;25;20805;-85
2024/04/09 04:23:30;;;;;;;18.42;4.13;;;15.40;99.90;;;;;;5504979;26;20002;-84
2024/04/09 04:26:06;;;;;;;26.65;4.40;;;15.30;99.90;;;;;;5502970;25;20005;-85
2024/04/09 04:28:37;;;;;;;31.85;5.45;;;15.20;99.90;;;;;;5506793;25;20095;-85
2024/04/09 04:31:07;;;;;;;24.67;4.03;;;15.20;99.90;;;;;;5504852;26;20022;-86
2024/04/09 04:33:33;;;;;;;22.77;4.10;;;15.10;99.90;;;;;;5506672;25;20005;-85
2024/04/09 04:35:58;;;;;;;15.43;3.95;;;15.00;99.90;;;;;;5502176;25;20009;-86
2024/04/09 04:38:25;;;;;;;25.58;4.18;;;15.00;99.90;;;;;;5505879;26;19994;-85
2024/04/09 04:40:50;;;;;;;25.92;4.20;;;15.00;99.90;;;;;;5506714;25;20097;-86
2024/04/09 04:43:16;;;;;;;17.05;4.60;;;15.00;99.90;;;;;;5505893;26;19997;-85
2024/04/09 04:45:43;;;;;;;17.00;3.47;;;15.00;99.90;;;;;;5506796;26;20125;-86
2024/04/09 04:48:09;;;;;;;18.00;4.00;;;15.00;99.90;;;;;;5503889;26;20018;-86
2024/04/09 04:50:35;;;;;;;21.38;4.40;;;14.90;99.90;;;;;;5499981;26;20002;-86
2024/04/09 04:53:01;;;;;;;28.83;4.45;;;14.90;99.90;;;;;;5500429;25;20006;-83
2024/04/09 04:55:27;;;;;;;27.40;3.95;;;14.90;99.90;;;;;;5493302;25;20013;-84
2024/04/09 04:57:53;;;;;;;22.85;4.70;;;14.90;99.90;;;;;;5489930;26;20013;-83
2024/04/09 05:00:19;;;;;;;24.08;4.40;;;14.90;99.90;;;;;;5487913;26;21733;-83
2024/04/09 05:02:44;;;;;;;26.17;4.72;;;14.80;99.90;;;;;;5493173;26;20002;-83
2024/04/09 05:05:12;;;;;;;21.63;3.55;;;14.90;99.90;;;;;;5493520;26;20536;-84
2024/04/09 05:07:38;;;;;;;18.42;3.90;;;14.80;99.90;;;;;;5494840;26;20018;-83
2024/04/09 05:10:04;;;;;;;22.50;4.13;;;14.90;99.90;;;;;;5493183;25;20012;-83
2024/04/09 05:12:30;;;;;;;21.08;4.80;;;14.90;99.90;;;;;;5497133;26;20006;-85
2024/04/09 05:14:56;;;;;;;21.42;3.90;;;14.90;99.90;;;;;;5492321;26;20016;-85
2024/04/09 05:17:21;;;;;;;21.77;4.28;;;14.90;99.90;;;;;;5490071;26;20025;-84
2024/04/09 05:19:50;;;;;;;17.88;4.22;;;15.00;99.90;;;;;;5489545;26;20473;-85
2024/04/09 05:22:17;;;;;;;27.85;4.25;;;15.00;99.90;;;;;;5489946;26;20453;-83
2024/04/09 05:24:44;;;;;;;25.23;4.40;;;15.10;99.90;;;;;;5495382;26;20001;-83
2024/04/09 05:27:10;;;;;;;18.63;4.30;;;15.10;99.90;;;;;;5495086;25;20005;-83
2024/04/09 05:29:36;;;;;;;19.58;3.45;;;15.10;99.90;;;;;;5494242;26;20147;-83
2024/04/09 05:32:01;;;;;;;20.50;3.95;;;15.20;99.90;;;;;;5493746;25;20002;-83
2024/04/09 05:34:27;;;;;;;24.20;4.00;;;15.20;99.90;;;;;;5493261;25;20017;-83
2024/04/09 05:36:53;;;;;;;18.70;4.55;;;15.30;99.90;;;;;;5494694;26;20793;-83
2024/04/09 05:39:19;;;;;;;23.35;4.13;;;15.40;99.90;;;;;;5492187;26;20067;-83
2024/04/09 05:41:45;;;;;;;16.60;4.35;;;15.50;99.90;;;;;;5492782;26;20002;-83
2024/04/09 05:44:11;;;;;;;30.88;4.75;;;15.60;99.90;;;;;;5492689;25;20014;-83
2024/04/09 05:46:39;;;;;;;26.17;4.80;;;15.60;99.90;;;;;;5497516;26;19997;-83
2024/04/09 05:49:05;;;;;;;29.92;4.78;;;15.70;99.90;;;;;;5495986;25;20005;-83
2024/04/09 05:51:31;;;;;;;21.60;4.63;;;15.80;99.90;;;;;;5493789;26;20020;-83
2024/04/09 05:53:57;;;;;;;18.85;4.18;;;15.90;99.90;;;;;;5492714;26;20006;-83
2024/04/09 05:56:22;;;;;;;21.00;4.10;;;15.90;99.90;;;;;;5495438;26;20004;-83
2024/04/09 05:58:48;;;;;;;19.00;3.90;;;15.90;99.90;;;;;;5494838;26;20021;-83
2024/04/09 06:01:14;;;;;;;20.63;4.45;;;15.90;99.90;;;;;;5496562;26;20006;-83
2024/04/09 06:03:40;;;;;;;18.88;4.47;;;16.00;99.90;;;;;;5494041;26;20806;-82
2024/04/09 06:06:06;;;;;;;28.27;4.57;;;16.00;99.90;;;;;;5492450;25;19997;-83
2024/04/09 06:08:31;;;;;;;24.63;4.45;;;16.00;99.90;;;;;;5491964;26;20053;-83
2024/04/09 06:10:57;;;;;;;19.10;3.75;;;16.10;99.90;;;;;;5496270;25;20005;-83
2024/04/09 06:13:23;;;;;;;20.50;4.05;;;16.10;99.90;;;;;;5492672;25;20066;-84
2024/04/09 06:15:48;;;;;;;20.33;4.28;;;16.10;99.90;;;;;;5494310;26;19998;-83
2024/04/09 06:18:14;;;;;;;25.25;4.82;;;16.10;99.90;;;;;;5491225;26;20080;-83
2024/04/09 06:20:40;;;;;;;32.80;5.03;;;16.10;99.90;;;;;;5490469;26;20006;-83
2024/04/09 06:23:05;;;;;;;22.58;4.40;;;16.10;99.90;;;;;;5492175;26;20631;-83
2024/04/09 06:25:31;;;;;;;29.15;4.28;;;16.10;99.90;;;;;;5490154;26;20030;-83
2024/04/09 06:27:58;;;;;;;20.63;4.05;;;16.10;99.90;;;;;;5489233;25;20013;-83
2024/04/09 06:30:23;;;;;;;23.42;4.50;;;16.10;99.90;;;;;;5489735;25;20009;-82
2024/04/09 06:32:49;;;;;;;22.17;4.05;;;16.10;99.90;;;;;;5486947;26;20006;-82
2024/04/09 06:35:14;;;;;;;27.10;4.68;;;16.20;99.90;;;;;;5488535;25;20001;-82
2024/04/09 06:37:40;;;;;;;28.20;4.93;;;16.20;99.90;;;;;;5491198;26;20083;-82
2024/04/09 06:40:06;;;;;;;24.45;4.93;;;16.30;99.90;;;;;;5492435;25;19990;-82
2024/04/09 06:42:32;;;;;;;24.23;4.70;;;16.30;99.90;;;;;;5488449;25;21756;-82
2024/04/09 06:44:59;;;;;;;21.20;4.82;;;16.40;99.90;;;;;;5489242;26;20070;-83
2024/04/09 06:47:25;;;;;;;23.13;4.28;;;16.40;99.90;;;;;;5492330;25;20021;-82
2024/04/09 06:49:51;;;;;;;27.25;4.45;;;16.50;99.90;;;;;;5492598;25;20227;-83
2024/04/09 06:52:17;;;;;;;23.38;4.25;;;16.50;99.90;;;;;;5494983;26;21341;-82
2024/04/09 06:54:43;;;;;;;26.30;4.75;;;16.60;99.90;;;;;;5492920;25;20979;-83
2024/04/09 06:57:09;;;;;;;24.02;4.65;;;16.60;99.90;;;;;;5474326;26;20029;-84
2024/04/09 06:59:35;;;;;;;28.25;4.50;;;16.60;99.90;;;;;;5470898;25;20461;-82
2024/04/09 07:02:01;;;;;;;28.08;4.30;;;16.70;99.90;;;;;;5494179;26;19990;-81
2024/04/09 07:04:27;;;;;;;23.10;4.70;;;16.70;99.90;;;;;;5498228;26;20041;-83
2024/04/09 07:06:52;;;;;;;27.40;4.72;;;16.70;99.90;;;;;;5494331;25;19994;-82
2024/04/09 07:09:18;;;;;;;19.85;4.53;;;16.70;99.90;;;;;;5495966;25;20093;-82
2024/04/09 07:11:47;;;;;;;26.65;4.75;;;16.70;99.90;;;;;;5495203;25;21738;-81
2024/04/09 07:14:13;;;;;;;24.67;4.75;;;16.70;99.90;;;;;;5497756;26;21365;-82
2024/04/09 07:16:43;;;;;;;23.77;4.30;;;16.70;99.90;;;;;;5496347;26;20029;-82
2024/04/09 07:19:08;;;;;;;22.10;4.45;;;16.70;99.90;;;;;;5493414;26;20025;-82
2024/04/09 07:21:35;;;;;;;23.98;4.60;;;16.70;99.90;;;;;;5495752;26;20040;-82
2024/04/09 07:24:01;;;;;;;20.83;4.50;;;16.70;99.90;;;;;;5496693;26;20012;-82
2024/04/09 07:26:26;;;;;;;23.58;4.90;;;16.80;99.90;;;;;;5496851;25;20002;-83
2024/04/09 07:28:52;;;;;;;33.95;5.38;;;16.80;99.90;;;;;;5495693;26;20020;-82
2024/04/09 07:31:17;;;;;;;41.40;5.07;;;16.90;99.90;;;;;;5499114;25;20020;-82
2024/04/09 07:33:46;;;;;;;23.30;4.63;;;16.90;99.90;;;;;;5497628;26;19998;-82
2024/04/09 07:36:12;;;;;;;30.40;5.25;;;17.00;99.90;;;;;;5497581;26;20097;-82
2024/04/09 07:38:39;;;;;;;17.92;4.28;;;17.10;99.90;;;;;;5495958;26;20753;-82
2024/04/09 07:41:04;;;;;;;21.00;4.88;;;17.20;99.90;;;;;;5494339;26;20009;-82
2024/04/09 07:43:30;;;;;;;16.75;3.20;;;17.30;99.90;;;;;;5496105;26;20001;-82
2024/04/09 07:45:56;;;;;;;19.90;3.67;;;17.40;99.90;;;;;;5493795;25;20540;-82
2024/04/09 07:48:22;;;;;;;16.60;3.55;;;17.50;99.90;;;;;;5495922;26;20008;-82
2024/04/09 07:50:48;;;;;;;22.70;3.92;;;17.60;99.90;;;;;;5498547;25;20091;-82
2024/04/09 07:53:15;;;;;;;20.05;3.58;;;17.70;99.90;;;;;;5496922;26;20008;-82
2024/04/09 07:55:41;;;;;;;17.48;3.85;;;17.80;99.90;;;;;;5493110;26;20049;-83
2024/04/09 07:58:07;;;;;;;17.17;3.30;;;17.90;99.90;;;;;;5498849;25;20090;-83
2024/04/09 08:00:33;;;;;;;22.40;4.63;;;18.00;99.90;;;;;;5496070;25;20002;-83
2024/04/09 08:02:59;;;;;;;24.33;3.78;;;18.10;99.90;;;;;;5497198;25;20006;-83
2024/04/09 08:05:25;;;;;;;24.38;4.38;;;18.20;99.90;;;;;;5498648;26;19998;-83
2024/04/09 08:07:50;;;;;;;18.48;4.25;;;18.20;99.90;;;;;;5498093;26;20016;-83
2024/04/09 08:10:19;;;;;;;27.05;3.95;;;18.30;99.90;;;;;;5496209;26;19998;-83
2024/04/09 08:12:55;;;;;;;23.63;4.63;;;18.40;99.90;;;;;;5496297;26;20012;-83
2024/04/09 08:15:22;;;;;;;24.50;3.88;;;18.40;99.90;;;;;;5495476;25;20013;-83
2024/04/09 08:17:48;;;;;;;20.23;3.92;;;18.50;99.90;;;;;;5498166;26;20074;-82
2024/04/09 08:20:15;;;;;;;23.70;3.67;;;18.50;99.90;;;;;;5496210;25;20735;-83
2024/04/09 08:22:41;;;;;;;19.33;4.00;;;18.60;99.90;;;;;;5496522;26;20005;-83
2024/04/09 08:25:08;;;;;;;27.60;4.15;;;18.60;99.90;;;;;;5492146;26;20016;-83
2024/04/09 08:27:36;;;;;;;24.05;4.10;;;18.60;99.90;;;;;;5497459;26;20001;-83
2024/04/09 08:30:03;;;;;;;25.15;3.80;;;18.70;99.90;;;;;;5475143;26;20006;-84
2024/04/09 08:32:29;;;;;;;25.27;4.38;;;18.80;99.90;;;;;;5448282;26;20099;-83
2024/04/09 08:34:55;;;;;;;20.08;3.83;;;18.90;99.90;;;;;;5483652;25;20117;-82
2024/04/09 08:37:21;;;;;;;19.50;3.38;;;19.00;99.90;;;;;;5491788;25;20471;-82
2024/04/09 08:39:53;;;;;;;26.10;4.28;;;19.00;99.90;;;;;;5490131;26;19993;-82
2024/04/09 08:42:22;;;;;;;27.05;4.05;;;19.00;99.90;;;;;;5493906;26;20026;-82
2024/04/09 08:44:51;;;;;;;22.02;3.50;;;19.00;99.90;;;;;;5494345;25;20020;-83
2024/04/09 08:47:19;;;;;;;24.13;4.75;;;19.00;99.90;;;;;;5493392;26;20009;-83
2024/04/09 08:49:45;;;;;;;22.08;3.97;;;19.10;99.90;;;;;;5494347;25;20003;-82
2024/04/09 08:52:11;;;;;;;22.10;3.85;;;19.20;99.90;;;;;;5493061;26;20001;-82
2024/04/09 08:54:38;;;;;;;22.55;3.85;;;19.20;99.90;;;;;;5491051;26;20103;-82
2024/04/09 08:57:05;;;;;;;21.10;3.75;;;19.20;99.90;;;;;;5492335;26;20013;-82
2024/04/09 08:59:31;;;;;;;24.52;4.88;;;19.20;99.90;;;;;;5491640;26;20345;-82
2024/04/09 09:02:14;;;;;;;26.27;4.13;;;19.10;99.90;;;;;;5493302;25;19999;-82
2024/04/09 09:04:41;;;;;;;18.05;4.55;;;19.20;99.90;;;;;;5492594;26;20002;-82
2024/04/09 09:07:18;;;;;;;25.20;4.32;;;19.20;99.90;;;;;;5493101;25;20010;-82
2024/04/09 09:09:44;;;;;;;31.42;6.40;;;19.30;99.90;;;;;;5492705;25;20005;-82
2024/04/09 09:12:10;;;;;;;25.67;4.15;;;19.40;99.90;;;;;;5494693;26;20020;-82
2024/04/09 09:14:36;;;;;;;21.02;4.78;;;19.40;99.90;;;;;;5493130;26;20706;-82
2024/04/09 09:17:07;;;;;;;25.85;4.45;;;19.40;99.90;;;;;;5494944;26;19997;-82
2024/04/09 09:19:34;;;;;;;21.05;3.63;;;19.40;99.90;;;;;;5492408;26;20018;-82
2024/04/09 09:22:10;;;;;;;23.85;3.75;;;19.50;99.90;;;;;;5492925;26;20017;-82
2024/04/09 09:24:36;;;;;;;31.83;4.05;;;19.60;99.90;;;;;;5491169;26;20001;-82
2024/04/09 09:27:04;;;;;;;25.27;4.97;;;19.60;99.90;;;;;;5491714;25;20053;-82
2024/04/09 09:29:30;;;;;;;23.10;4.15;;;19.60;99.90;;;;;;5494003;25;20001;-83
2024/04/09 09:31:56;;;;;;;19.15;4.15;;;19.50;99.90;;;;;;5495839;26;20775;-82
2024/04/09 09:34:29;;;;;;;25.88;3.95;;;19.70;99.90;;;;;;5490134;26;20002;-83
2024/04/09 09:36:59;;;;;;;18.87;3.77;;;19.70;99.90;;;;;;5493502;26;20005;-82
2024/04/09 09:39:27;;;;;;;22.38;4.93;;;19.80;99.90;;;;;;5494135;26;19998;-82
2024/04/09 09:41:55;;;;;;;21.45;3.72;;;19.90;99.90;;;;;;5491279;26;20002;-82
2024/04/09 09:44:22;;;;;;;30.05;4.47;;;19.90;99.90;;;;;;5492213;25;20006;-82
2024/04/09 09:46:48;;;;;;;20.88;3.75;;;20.10;99.90;;;;;;5492035;26;20024;-82
2024/04/09 09:49:16;;;;;;;24.92;4.30;;;20.10;99.90;;;;;;5493153;25;20001;-82
2024/04/09 09:51:42;;;;;;;24.75;4.47;;;20.10;99.90;;;;;;5490643;25;20009;-79
2024/04/09 09:54:08;;;;;;;18.02;3.83;;;20.10;99.90;;;;;;5447640;25;19993;-81
2024/04/09 09:56:35;;;;;;;20.60;3.78;;;20.10;99.90;;;;;;5467211;25;20357;-79
2024/04/09 09:59:03;;;;;;;22.00;4.45;;;20.20;99.90;;;;;;5487214;26;19998;-79
2024/04/09 10:01:30;;;;;;;29.83;4.20;;;20.30;99.90;;;;;;5484285;26;20107;-79
2024/04/09 10:03:56;;;;;;;19.27;4.13;;;20.40;99.90;;;;;;5488249;26;19990;-79
2024/04/09 10:06:27;;;;;;;23.73;4.57;;;20.50;99.90;;;;;;5483959;26;20006;-78
2024/04/09 10:08:52;;;;;;;20.63;3.70;;;20.60;99.90;;;;;;5488072;25;20017;-86
2024/04/09 10:11:21;;;;;;;22.05;4.15;;;20.60;99.90;;;;;;5488395;26;20030;-78
2024/04/09 10:13:53;;;;;;;25.63;4.20;;;20.50;99.90;;;;;;5487784;26;20458;-78
2024/04/09 10:16:21;;;;;;;24.65;4.45;;;20.60;99.90;;;;;;5488629;26;20321;-78
2024/04/09 10:18:47;;;;;;;24.08;3.80;;;20.60;99.90;;;;;;5486413;26;20124;-78
2024/04/09 10:21:15;;;;;;;25.00;4.20;;;20.60;99.90;;;;;;5487549;25;21763;-77
2024/04/09 10:23:41;;;;;;;26.80;4.53;;;20.60;99.90;;;;;;5488640;26;20005;-78
2024/04/09 10:26:09;;;;;;;21.20;4.45;;;20.60;99.90;;;;;;5485456;25;20010;-78
2024/04/09 10:28:35;;;;;;;34.40;5.45;;;20.60;99.90;;;;;;5486317;26;20001;-78
2024/04/09 10:31:09;;;;;;;25.83;4.38;;;20.60;99.90;;;;;;5483704;25;20005;-78
2024/04/09 10:33:38;;;;;;;27.42;5.25;;;20.60;99.90;;;;;;5484082;26;20006;-78
2024/04/09 10:36:09;;;;;;;29.55;4.20;;;20.60;99.90;;;;;;5485619;25;19998;-77
2024/04/09 10:38:41;;;;;;;25.77;5.55;;;20.70;99.90;;;;;;5487676;26;20109;-77
2024/04/09 10:41:07;;;;;;;27.02;4.15;;;20.60;99.90;;;;;;5482972;25;20025;-76
2024/04/09 10:43:34;;;;;;;18.27;4.93;;;20.50;99.90;;;;;;5467576;25;19995;-77
2024/04/09 10:46:02;;;;;;;23.80;4.78;;;20.50;99.90;;;;;;5482771;26;20137;-76
2024/04/09 10:48:27;;;;;;;25.92;4.55;;;20.60;99.90;;;;;;5486342;25;20020;-76
2024/04/09 10:50:53;;;;;;;27.25;5.00;;;20.60;99.90;;;;;;5486758;26;19990;-76
2024/04/09 10:53:19;;;;;;;21.42;4.00;;;20.60;99.90;;;;;;5486999;25;19998;-77
2024/04/09 10:55:45;;;;;;;33.03;4.85;;;20.60;99.90;;;;;;5485387;26;20019;-77
2024/04/09 10:58:17;;;;;;;23.95;4.00;;;20.60;99.90;;;;;;5487870;25;20028;-78
2024/04/09 11:00:48;;;;;;;23.77;4.57;;;20.60;99.90;;;;;;5487703;26;20017;-77
2024/04/09 11:03:14;;;;;;;30.30;5.28;;;20.60;99.90;;;;;;5486131;25;20074;-77
2024/04/09 11:05:41;;;;;;;27.17;5.40;;;20.70;99.90;;;;;;5487581;25;20010;-84
2024/04/09 11:08:08;;;;;;;31.23;4.68;;;20.90;99.90;;;;;;5483657;25;20089;-84
2024/04/09 11:10:33;;;;;;;33.53;5.35;;;21.00;99.90;;;;;;5487811;26;20005;-85
2024/04/09 11:12:59;;;;;;;22.55;6.15;;;21.10;99.90;;;;;;5489863;26;20020;-85
2024/04/09 11:15:25;;;;;;;23.50;5.15;;;21.20;99.90;;;;;;5488283;25;20020;-84
2024/04/09 11:17:51;;;;;;;28.08;4.80;;;21.20;99.90;;;;;;5490907;26;20029;-85
2024/04/09 11:20:19;;;;;;;28.40;4.28;;;21.30;99.90;;;;;;5490242;26;20018;-85
2024/04/09 11:22:46;;;;;;;23.35;4.85;;;21.40;99.90;;;;;;5489935;26;19994;-84
2024/04/09 11:25:19;;;;;;;39.85;5.65;;;21.60;99.90;;;;;;5486347;25;20030;-85
2024/04/09 11:27:48;;;;;;;28.63;4.90;;;21.70;99.90;;;;;;5487702;26;20012;-85
2024/04/09 11:30:25;;;;;;;23.33;4.75;;;21.80;99.90;;;;;;5490946;25;20005;-84
2024/04/09 11:32:54;;;;;;;22.15;4.38;;;21.80;99.90;;;;;;5487002;25;20032;-84
2024/04/09 11:35:21;;;;;;;24.25;4.53;;;21.70;99.90;;;;;;5483461;26;20121;-84
2024/04/09 11:37:51;;;;;;;32.30;5.00;;;21.70;99.90;;;;;;5483843;26;20016;-84
2024/04/09 11:40:20;;;;;;;34.80;4.70;;;21.50;99.90;;;;;;5490242;25;20008;-83
2024/04/09 11:42:48;;;;;;;29.65;5.22;;;21.30;99.90;;;;;;5488432;26;20650;-85
2024/04/09 11:45:22;;;;;;;38.28;5.30;;;21.20;99.90;;;;;;5490426;25;20069;-84
2024/04/09 11:47:48;;;;;;;29.00;5.03;;;21.10;99.90;;;;;;5497523;25;20112;-85
2024/04/09 11:50:17;;;;;;;29.80;5.22;;;20.90;99.90;;;;;;5497337;25;20140;-84
2024/04/09 11:52:43;;;;;;;34.00;4.97;;;20.80;99.90;;;;;;5495238;26;20020;-84
2024/04/09 11:55:09;;;;;;;35.00;4.53;;;20.80;99.90;;;;;;5493921;26;20010;-84
2024/04/09 11:57:35;;;;;;;27.95;5.35;;;20.90;99.90;;;;;;5497001;25;20003;-84
2024/04/09 12:00:02;;;;;;;27.60;4.90;;;21.10;99.90;;;;;;5496771;26;20006;-84
2024/04/09 12:02:28;;;;;;;25.33;4.43;;;21.20;99.90;;;;;;5491300;25;20012;-84
2024/04/09 12:04:54;;;;;;;27.20;5.22;;;21.30;99.90;;;;;;5489762;26;20077;-85
2024/04/09 12:07:19;;;;;;;34.28;4.05;;;21.30;99.90;;;;;;5486579;26;20009;-84
2024/04/09 12:09:45;;;;;;;18.00;3.30;;;20.90;99.90;;;;;;5490948;26;20010;-84
2024/04/09 12:12:10;;;;;;;17.27;3.33;;;20.50;99.90;;;;;;5488605;26;20040;-84
2024/04/09 12:14:36;;;;;;;9.25;2.08;;;19.80;99.90;;;;;;5491045;26;20023;-84
2024/04/09 12:17:02;;;;;;;12.07;1.73;;;19.30;99.90;;;;;;5488691;26;20002;-84
2024/04/09 12:19:28;;;;;;;11.00;2.33;;;18.70;99.90;;;;;;5487883;25;20476;-84
2024/04/09 12:21:53;;;;;;;9.85;2.22;;;18.20;99.90;;;;;;5486587;26;20054;-84
2024/04/09 12:24:19;;;;;;;14.13;2.53;;;17.80;99.90;;;;;;5487151;25;20085;-83
2024/04/09 12:26:45;;;;;;;12.50;1.70;;;17.50;99.90;;;;;;5484142;26;20001;-87
2024/04/09 12:29:10;;;;;;;9.90;1.63;;;17.20;99.90;;;;;;5482036;26;20093;-87
2024/04/09 12:31:36;;;;;;;9.10;1.77;;;17.10;99.90;;;;;;5482432;25;20434;-86
2024/04/09 12:34:02;;;;;;;6.70;1.60;;;17.10;99.90;;;;;;5485198;25;20002;-86
2024/04/09 12:36:27;;;;;;;11.40;1.40;;;17.10;99.90;;;;;;5483411;25;22029;-86